DRI-NNSC Building Weather observations

Data are for 10 minute period ending at time listed.
 Day   Time   Solar   Ave.   Ave.  Ave.  Vector  Max.   Baro.   Total    
  of    of     Rad.   Air    Rel.  Wind   Wind   Wind  Press.  Precip.   
Year   Day            Temp.  Hum.  Speed  Dir.   Gust                    
2014   (PST)  Kw/m2    F      %     mph   deg.    mph    mb.     in.     
-------------------------------------------------------------------------
 243   20:10   0.00   73.1    22    6.4   312     10   848.5    0.00 
 243   20:20   0.00   72.7    22    7.9   333     17   848.5    0.00 
 243   20:30   0.00   72.7    23    7.8   322     14   848.6    0.00 
 243   20:40   0.00   71.2    24    6.2   317     11   848.6    0.00 
 243   20:50   0.00   71.0    25    6.2   318     11   848.6    0.00 
 243   21:00   0.00   70.2    26    4.6   302      8   848.7    0.00 
 243   21:10   0.00   69.4    26    5.6   319      8   848.7    0.00 
 243   21:20   0.00   69.3    26    5.0   325      9   848.8    0.00 
 243   21:30   0.00   69.2    27    1.9   303      5   848.9    0.00 
 243   21:40   0.00   68.6    27    1.9   249      4   849.0    0.00 
 243   21:50   0.00   68.5    28    2.8   251      6   849.2    0.00 
 243   22:00   0.00   68.3    28    2.6   292      4   849.2    0.00 
 243   22:10   0.00   67.9    29    2.3   292      4   849.2    0.00 
 243   22:20   0.00   66.8    30    2.7   307      5   849.2    0.00 
 243   22:30   0.00   66.9    30    3.8   343      9   849.3    0.00 
 243   22:40   0.00   67.8    30    4.2   335      9   849.3    0.00 
 243   22:50   0.00   67.0    31    4.3   336     11   849.3    0.00 
 243   23:00   0.00   68.2    30    7.9   342     12   849.3    0.00 
 243   23:10   0.00   68.3    30    7.7   348     12   849.4    0.00 
 243   23:20   0.00   68.2    30    7.2   343     11   849.4    0.00 
 243   23:30   0.00   68.0    30    6.8   346     12   849.4    0.00 
 243   23:40   0.00   67.8    31    8.0   354     13   849.5    0.00 
 243   23:50   0.00   67.8    32    8.3   349     13   849.5    0.00 
 244    0:00   0.00   67.7    32    9.0   350     14   849.6    0.00 
 244    0:10   0.00   67.4    32    9.9   352     16   849.6    0.00 
 244    0:20   0.00   67.3    29   15.9   359     23   849.6    0.00 
 244    0:30   0.00   67.6    26   14.4   357     20   849.7    0.00 
 244    0:40   0.00   66.4    27    9.1   351     14   849.7    0.00 
 244    0:50   0.00   64.6    31    8.3   339     14   849.6    0.00 
 244    1:00   0.00   63.9    32    9.3   339     14   849.7    0.00 
 244    1:10   0.00   63.9    32    9.1   336     14   849.6    0.00 
 244    1:20   0.00   63.7    33    9.3   336     14   849.6    0.00 
 244    1:30   0.00   63.5    32    9.6   340     14   849.7    0.00 
 244    1:40   0.00   63.8    30   10.1   341     15   849.6    0.00 
 244    1:50   0.00   64.0    29    9.7   342     18   849.6    0.00 
 244    2:00   0.00   63.9    29   10.3   339     16   849.6    0.00 
 244    2:10   0.00   63.8    29    9.7   345     15   849.6    0.00 
 244    2:20   0.00   64.1    28    9.4   344     15   849.6    0.00 
 244    2:30   0.00   63.6    29   10.2   347     15   849.6    0.00 
 244    2:40   0.00   63.1    30   10.4   349     16   849.6    0.00 
 244    2:50   0.00   63.1    30    9.1   347     14   849.5    0.00 
 244    3:00   0.00   62.9    32    8.9   346     14   849.6    0.00 
 244    3:10   0.00   62.6    33    7.9   343     12   849.6    0.00 
 244    3:20   0.00   62.6    31    7.8   343     12   849.6    0.00 
 244    3:30   0.00   62.5    31    9.1   348     13   849.6    0.00 
 244    3:40   0.00   61.9    31    8.3   343     14   849.6    0.00 
 244    3:50   0.00   61.3    32    8.7   341     14   849.7    0.00 
 244    4:00   0.00   61.2    32    9.4   340     13   849.7    0.00 
 244    4:10   0.00   61.0    32    8.7   340     13   849.7    0.00 
 244    4:20   0.00   60.5    32    8.9   335     13   849.7    0.00 
 244    4:30   0.00   60.1    32    7.7   340     12   849.8    0.00 
 244    4:40   0.00   60.0    32    8.4   346     12   849.8    0.00 
 244    4:50   0.00   60.1    32    8.3   348     13   849.9    0.00 
 244    5:00   0.00   60.3    31    8.1   346     13   849.9    0.00 
 244    5:10   0.00   60.0    32    8.0   342     12   850.1    0.00 
 244    5:20   0.00   59.5    33    3.5     4     10   850.3    0.00 
 244    5:30   0.00   59.1    33    1.6    30      6   850.3    0.00 
 244    5:40   0.01   59.4    33    4.6   350      8   850.4    0.00 
 244    5:50   0.02   60.2    32    4.9   344      9   850.5    0.00 
 244    6:00   0.04   59.8    32    4.9   349      8   850.6    0.00 
 244    6:10   0.08   60.2    32    3.0     6      7   850.7    0.00 
 244    6:20   0.10   61.9    30    1.6    77      5   850.8    0.00 
 244    6:30   0.12   62.3    30    1.6   175      3   850.8    0.00 
 244    6:40   0.15   63.0    29    1.2   161      3   850.9    0.00 
 244    6:50   0.18   62.7    30    2.0   179      3   850.9    0.00 
 244    7:00   0.21   62.8    30    1.9   278      5   850.9    0.00 
 244    7:10   0.25   62.7    32    2.1   321      4   850.9    0.00 
 244    7:20   0.28   63.1    32    1.5   245      3   850.9    0.00 
 244    7:30   0.31   64.3    32    1.9   194      4   850.9    0.00 
 244    7:40   0.34   64.5    34    2.4   167      5   851.0    0.00 
 244    7:50   0.38   64.3    34    2.9   156      5   850.9    0.00 
 244    8:00   0.41   64.8    33    1.7   156      4   850.9    0.00 
 244    8:10   0.44   65.8    31    1.5   154      3   850.9    0.00 
 244    8:20   0.47   67.0    30    1.7   154      4   851.0    0.00 
 244    8:30   0.50   68.0    28    1.4    98      6   851.0    0.00 
 244    8:40   0.53   67.9    27    2.0    71      5   850.9    0.00 
 244    8:50   0.56   68.1    26    2.8    74      6   850.8    0.00 
 244    9:00   0.59   68.8    26    3.1    80      6   850.7    0.00 
 244    9:10   0.62   69.5    25    3.7    91      6   850.8    0.00 
 244    9:20   0.64   69.7    25    2.9    84      6   850.8    0.00 
 244    9:30   0.67   70.4    25    3.8    90      8   850.8    0.00 
 244    9:40   0.69   71.0    24    4.2    57     11   850.7    0.00 
 244    9:50   0.71   72.4    22    4.0    86      8   850.6    0.00 
 244   10:00   0.73   72.3    22    5.1    90     10   850.6    0.00 
 244   10:10   0.75   73.9    21    3.4   128      9   850.5    0.00 
 244   10:20   0.77   74.6    20    4.6   132      9   850.5    0.00 
 244   10:30   0.79   74.9    20    4.2   104     11   850.4    0.00 
 244   10:40   0.80   75.4    20    4.3   118      9   850.3    0.00 
 244   10:50   0.81   75.5    20    6.4    95     13   850.2    0.00 
 244   11:00   0.83   76.0    19    4.9   106     10   850.2    0.00 
 244   11:10   0.84   76.4    19    4.5   133     11   850.1    0.00 
 244   11:20   0.85   77.4    19    3.5   110      9   850.0    0.00 
 244   11:30   0.85   77.7    18    5.7   129     10   849.8    0.00 
 244   11:40   0.86   78.2    18    5.4   115     12   849.7    0.00 
 244   11:50   0.87   78.2    18    5.1   142     12   849.6    0.00 
 244   12:00   0.87   79.8    17    3.5   167      9   849.4    0.00 
 244   12:10   0.87   79.3    17    2.4   178      8   849.3    0.00 
 244   12:20   0.87   80.9    16    3.8   139     10   849.1    0.00 
 244   12:30   0.86   80.4    16    3.8   119     12   849.1    0.00 
 244   12:40   0.85   80.7    16    4.1    93     11   849.1    0.00 
 244   12:50   0.85   80.9    15    4.2    89     11   849.0    0.00 
 244   13:00   0.84   81.1    15    3.1    75      8   848.9    0.00 
 244   13:10   0.83   81.5    15    4.0    73     10   848.8    0.00 
 244   13:20   0.82   82.1    15    5.9   114     13   848.6    0.00 
 244   13:30   0.81   82.5    15    6.3    98     13   848.5    0.00 
 244   13:40   0.79   82.2    15    7.1   118     13   848.5    0.00 
 244   13:50   0.78   82.7    15    4.9   128     11   848.3    0.00 
 244   14:00   0.76   84.2    14    4.2    70      8   848.2    0.00 
 244   14:10   0.74   83.5    14    4.8    67     10   848.1    0.00 
 244   14:20   0.72   83.6    14    5.7   126     10   847.9    0.00 
 244   14:30   0.70   84.5    14    6.1   142     12   847.8    0.00 
 244   14:40   0.67   83.8    14    4.6    64      9   847.7    0.00 
 244   14:50   0.65   84.0    14    6.8    96     10   847.6    0.00 
 244   15:00   0.62   85.2    13    2.3   145      6   847.4    0.00 
 244   15:10   0.59   85.1    13    4.1   126      9   847.4    0.00 
 244   15:20   0.57   84.6    14    5.7   137     11   847.5    0.00 
 244   15:30   0.54   85.6    13    4.9   162      8   847.4    0.00 
 244   15:40   0.51   85.7    13    4.2   106      9   847.3    0.00 
 244   15:50   0.48   84.9    13    4.3    69     10   847.1    0.00 
 244   16:00   0.45   85.2    13    3.3    90      7   847.1    0.00 
 244   16:10   0.41   85.1    13    3.6    62      6   847.1    0.00 
 244   16:20   0.38   85.7    13    2.0   359      4   847.1    0.00 
 244   16:30   0.35   86.0    13    3.0    92      7   847.0    0.00 
 244   16:40   0.32   85.6    13    2.3   128      7   846.9    0.00 
 244   16:50   0.28   85.5    13    5.1   129     10   846.9    0.00 
 244   17:00   0.25   85.0    13    4.0   106      7   846.9    0.00 
 244   17:10   0.21   84.9    13    3.9   107      6   846.9    0.00 
 244   17:20   0.18   85.0    13    2.8    87      7   846.9    0.00 
 244   17:30   0.15   84.4    13    3.7    75      9   846.8    0.00 
 244   17:40   0.12   83.9    14    4.7    54      8   846.9    0.00 
 244   17:50   0.10   83.1    14    5.0    30      8   846.9    0.00 
 244   18:00   0.07   82.1    14    6.6    19     11   847.0    0.00 
 244   18:10   0.03   80.5    15    7.8    15     13   847.0    0.00 
 244   18:20   0.01   79.9    15    9.8     6     14   847.1    0.00 
 244   18:30   0.01   79.6    15   10.3     2     14   847.1    0.00 
 244   18:40   0.00   78.5    16    8.3    33     12   847.3    0.00 
 244   18:50   0.00   78.0    16    9.7    31     13   847.4    0.00 
 244   19:00   0.00   77.6    15    9.2    15     15   847.5    0.00 
 244   19:10   0.00   77.5    15    8.1    14     13   847.6    0.00 
 244   19:20   0.00   77.6    15    8.3   349     13   847.6    0.00 
 244   19:30   0.00   76.5    16    8.0   347     12   847.8    0.00 
 244   19:40   0.00   76.7    15    7.7   354     10   847.9    0.00 
 244   19:50   0.00   76.9    15    7.0   351     11   848.0    0.00 
 244   20:00   0.00   76.0    15    7.9   348     11   848.1    0.00 

Return to NNSC graphs page.


Western Regional Climate Center,wrcc@dri.edu